Time;durP1;ratioP1;P1;durP2;ratioP2;P2;SDS_P1;SDS_P2;PMS_P1;PMS_P2;Temp;Humidity;BMP_temperature;BMP_pressure;BME280_temperature;BME280_humidity;BME280_pressure;Samples;Min_cycle;Max_cycle;Signal;HPM_P1;HPM_P2
2021/03/17 00:00:51;;;;;;;53.33;30.43;;;;;;;2.10;87.67;97791.47;1772979;79;21522;-72
2021/03/17 00:03:18;;;;;;;55.38;28.83;;;;;;;2.18;86.75;97787.12;1799725;79;21078;-72
2021/03/17 00:05:45;;;;;;;56.90;30.20;;;;;;;2.18;86.18;97796.48;1799806;78;21066;-72
2021/03/17 00:08:11;;;;;;;58.35;32.03;;;;;;;2.05;86.37;97797.52;1799711;79;21514;-72
2021/03/17 00:10:39;;;;;;;61.63;33.67;;;;;;;1.88;86.85;97797.38;1799777;78;21237;-72
2021/03/17 00:13:06;;;;;;;57.38;31.17;;;;;;;1.87;86.62;97798.39;1799773;79;21030;-72
2021/03/17 00:15:38;;;;;;;52.67;28.50;;;;;;;1.78;87.26;97801.10;1799734;78;21092;-72
2021/03/17 00:18:05;;;;;;;60.63;30.35;;;;;;;1.69;87.92;97789.93;1799752;79;21113;-72
2021/03/17 00:20:31;;;;;;;55.28;29.72;;;;;;;1.75;87.68;97790.88;1799755;78;21130;-72
2021/03/17 00:22:57;;;;;;;50.60;28.00;;;;;;;1.74;88.08;97793.27;1799719;79;22146;-72
2021/03/17 00:25:24;;;;;;;47.35;25.10;;;;;;;1.71;88.18;97789.73;1799756;78;21055;-72
2021/03/17 00:27:50;;;;;;;48.63;25.55;;;;;;;1.73;87.99;97794.84;1799666;79;21133;-72
2021/03/17 00:30:17;;;;;;;50.08;26.45;;;;;;;1.68;88.19;97794.98;1799748;78;21042;-72
2021/03/17 00:32:43;;;;;;;42.62;23.07;;;;;;;1.70;88.32;97793.41;1780751;80;21119;-72
2021/03/17 00:35:09;;;;;;;43.87;24.87;;;;;;;1.72;88.21;97785.20;1780767;79;21190;-72
2021/03/17 00:37:36;;;;;;;46.02;22.50;;;;;;;1.78;87.78;97789.08;1780650;80;21047;-72
2021/03/17 00:40:03;;;;;;;48.75;24.50;;;;;;;1.80;87.26;97784.87;1780747;79;21083;-72
2021/03/17 00:42:29;;;;;;;44.88;24.70;;;;;;;1.73;87.75;97787.63;1756677;80;21059;-72
2021/03/17 00:44:55;;;;;;;43.63;24.32;;;;;;;1.66;87.83;97789.06;1762161;80;21041;-72
2021/03/17 00:47:21;;;;;;;43.75;21.55;;;;;;;1.60;88.36;97786.48;1762171;81;21479;-72
2021/03/17 00:49:47;;;;;;;52.20;26.10;;;;;;;1.61;88.34;97787.58;1780754;79;21429;-72
2021/03/17 00:52:13;;;;;;;45.52;25.20;;;;;;;1.61;88.50;97785.43;1760994;80;21116;-72
2021/03/17 00:54:40;;;;;;;46.23;24.85;;;;;;;1.58;88.66;97787.23;1759710;81;21418;-72
2021/03/17 00:57:06;;;;;;;41.00;21.52;;;;;;;1.57;88.82;97794.44;1759732;81;21021;-72
2021/03/17 00:59:32;;;;;;;42.95;22.50;;;;;;;1.62;88.20;97792.40;1759727;81;21497;-72
2021/03/17 01:01:58;;;;;;;47.50;24.55;;;;;;;1.58;88.58;97791.24;1759646;81;21064;-72
2021/03/17 01:04:24;;;;;;;46.65;23.20;;;;;;;1.58;88.73;97789.38;1759810;81;21045;-72
2021/03/17 01:06:50;;;;;;;44.55;24.85;;;;;;;1.59;88.59;97788.86;1759722;81;21152;-72
2021/03/17 01:09:17;;;;;;;45.75;25.20;;;;;;;1.60;88.45;97794.49;1759819;81;21391;-72
2021/03/17 01:11:43;;;;;;;47.10;25.23;;;;;;;1.59;88.42;97793.68;1759783;81;21210;-72
2021/03/17 01:14:11;;;;;;;44.65;23.85;;;;;;;1.53;88.75;97787.09;1759743;81;21533;-72
2021/03/17 01:16:38;;;;;;;44.38;22.10;;;;;;;1.52;88.92;97790.28;1759663;81;21227;-72
2021/03/17 01:19:04;;;;;;;49.88;28.00;;;;;;;1.56;88.83;97783.46;1759711;81;21103;-72
2021/03/17 01:21:30;;;;;;;50.75;25.23;;;;;;;1.60;88.26;97782.47;1759733;81;21192;-72
2021/03/17 01:23:57;;;;;;;48.55;24.27;;;;;;;1.66;88.35;97793.06;1759788;81;22248;-72
2021/03/17 01:26:23;;;;;;;49.03;23.73;;;;;;;1.68;88.14;97787.49;1759661;81;21516;-72
2021/03/17 01:28:49;;;;;;;47.15;24.10;;;;;;;1.63;88.29;97790.05;1759792;81;21140;-72
2021/03/17 01:31:15;;;;;;;50.75;27.52;;;;;;;1.62;88.43;97787.91;1759671;81;21135;-72
2021/03/17 01:33:41;;;;;;;47.40;24.98;;;;;;;1.68;88.24;97787.49;1759720;81;21156;-72
2021/03/17 01:36:07;;;;;;;52.40;27.90;;;;;;;1.69;88.27;97791.27;1759744;81;22080;-72
2021/03/17 01:38:34;;;;;;;48.00;25.37;;;;;;;1.70;88.05;97791.55;1759629;81;21092;-72
2021/03/17 01:41:00;;;;;;;51.88;26.05;;;;;;;1.74;87.83;97783.91;1759765;81;21167;-72
2021/03/17 01:43:26;;;;;;;50.60;26.95;;;;;;;1.74;87.87;97788.45;1759754;81;21497;-72
2021/03/17 01:45:52;;;;;;;46.92;25.12;;;;;;;1.75;87.82;97784.73;1759816;81;21144;-72
2021/03/17 01:48:19;;;;;;;47.85;25.32;;;;;;;1.74;87.76;97784.44;1759760;81;22052;-72
2021/03/17 01:50:49;;;;;;;57.13;29.32;;;;;;;1.61;88.32;97785.43;1759682;81;21053;-72
2021/03/17 01:53:18;;;;;;;50.00;26.52;;;;;;;1.67;88.01;97784.01;1759739;81;21442;-72
2021/03/17 01:55:44;;;;;;;51.55;30.57;;;;;;;1.69;87.95;97779.77;1759793;81;21489;-71
2021/03/17 01:58:11;;;;;;;51.92;27.02;;;;;;;1.73;87.80;97787.63;1759795;81;21111;-71
2021/03/17 02:00:39;;;;;;;53.58;27.32;;;;;;;1.73;87.68;97779.62;1759696;81;22082;-71
2021/03/17 02:03:06;;;;;;;51.35;27.62;;;;;;;1.72;87.73;97781.19;1759702;81;21422;-71
2021/03/17 02:05:36;;;;;;;49.45;24.82;;;;;;;1.71;87.74;97777.70;1759700;81;21104;-71
2021/03/17 02:08:11;;;;;;;50.43;27.45;;;;;;;1.76;87.57;97775.14;1759696;81;21108;-72
2021/03/17 02:10:38;;;;;;;51.63;26.97;;;;;;;1.85;87.02;97774.29;1759804;81;21430;-71
2021/03/17 02:13:33;;;;;;;48.68;28.32;;;;;;;1.90;86.85;97775.23;1759706;81;21271;-71
2021/03/17 02:16:26;;;;;;;46.53;25.32;;;;;;;1.91;87.02;97779.54;1759081;81;21040;-72
2021/03/17 02:19:15;;;;;;;47.23;24.63;;;;;;;1.91;86.90;97776.05;1759761;81;21137;-71
2021/03/17 02:22:23;;;;;;;53.75;27.15;;;;;;;1.93;86.39;97773.95;1759904;81;21516;-72
2021/03/17 02:24:56;;;;;;;49.57;27.40;;;;;;;1.89;86.69;97774.14;1760041;81;21041;-72
2021/03/17 02:27:43;;;;;;;50.55;28.90;;;;;;;1.85;86.85;97776.96;1744018;81;21219;-72
2021/03/17 02:30:41;;;;;;;49.53;27.95;;;;;;;1.83;87.12;97777.20;1733908;81;21467;-72
2021/03/17 02:33:24;;;;;;;53.58;26.62;;;;;;;1.82;87.33;97779.58;1759678;81;21433;-72
2021/03/17 02:35:54;;;;;;;55.35;27.27;;;;;;;1.78;87.97;97773.58;1718737;81;21140;-72
2021/03/17 02:38:21;;;;;;;52.35;29.18;;;;;;;1.84;87.54;97776.67;1759867;81;21096;-72
2021/03/17 02:40:47;;;;;;;54.83;28.57;;;;;;;1.92;87.08;97777.67;1734197;81;21220;-72
2021/03/17 02:43:17;;;;;;;52.27;26.80;;;;;;;1.91;87.48;97776.86;1759771;81;21108;-72
2021/03/17 02:45:46;;;;;;;61.18;29.48;;;;;;;1.95;87.37;97775.87;1759828;81;21132;-72
2021/03/17 02:48:17;;;;;;;53.52;28.10;;;;;;;1.88;87.81;97773.33;1734595;81;21498;-72
2021/03/17 02:50:46;;;;;;;56.23;28.38;;;;;;;1.83;88.23;97771.04;1758967;81;21124;-72
2021/03/17 02:53:13;;;;;;;49.67;27.15;;;;;;;1.86;87.87;97769.23;1753857;81;21207;-72
2021/03/17 02:55:47;;;;;;;52.80;28.27;;;;;;;1.86;87.85;97771.91;1732429;81;21447;-72
2021/03/17 02:58:13;;;;;;;52.80;26.15;;;;;;;1.86;87.93;97767.90;1704344;82;21534;-73
2021/03/17 03:00:40;;;;;;;57.88;28.60;;;;;;;1.83;87.79;97770.52;1732483;81;21033;-73
2021/03/17 03:03:06;;;;;;;61.28;30.45;;;;;;;1.83;88.11;97768.37;1732597;82;21081;-71
2021/03/17 03:05:32;;;;;;;56.48;28.83;;;;;;;1.84;87.68;97768.13;1732469;81;21499;-71
2021/03/17 03:07:59;;;;;;;54.63;27.90;;;;;;;1.75;88.32;97773.52;1732454;82;21053;-71
2021/03/17 03:10:28;;;;;;;56.10;28.92;;;;;;;1.81;88.17;97771.28;1732538;81;21427;-71
2021/03/17 03:12:54;;;;;;;54.55;26.40;;;;;;;1.79;88.24;97768.00;1704057;82;21510;-71
2021/03/17 03:15:23;;;;;;;55.70;26.27;;;;;;;1.83;88.18;97769.18;1732488;81;21140;-71
2021/03/17 03:17:49;;;;;;;52.73;26.62;;;;;;;1.88;88.23;97773.82;1732547;82;21201;-71
2021/03/17 03:20:18;;;;;;;46.50;26.87;;;;;;;1.88;88.09;97773.82;1732380;81;21121;-71
2021/03/17 03:22:45;;;;;;;52.65;25.80;;;;;;;1.90;87.83;97771.23;1732470;82;21104;-72
2021/03/17 03:25:13;;;;;;;56.18;29.60;;;;;;;1.82;88.36;97770.23;1732456;81;21153;-72
2021/03/17 03:27:39;;;;;;;59.98;28.80;;;;;;;1.87;88.18;97766.33;1732457;82;21042;-72
2021/03/17 03:30:15;;;;;;;57.80;32.08;;;;;;;1.85;88.31;97769.76;1732390;81;21270;-72
2021/03/17 03:32:42;;;;;;;56.02;30.12;;;;;;;1.80;88.45;97770.17;1732459;82;21529;-72
2021/03/17 03:35:11;;;;;;;60.23;29.37;;;;;;;1.83;88.09;97773.19;1732445;81;21049;-72
2021/03/17 03:37:37;;;;;;;59.77;29.07;;;;;;;1.73;88.43;97771.60;1732551;82;21041;-72
2021/03/17 03:40:18;;;;;;;62.45;34.48;;;;;;;1.84;88.02;97776.15;1732539;81;21097;-72
2021/03/17 03:42:44;;;;;;;57.78;28.83;;;;;;;1.80;88.41;97777.67;1732538;82;21248;-72
2021/03/17 03:45:13;;;;;;;59.48;30.02;;;;;;;1.88;87.78;97771.98;1732382;81;21188;-72
2021/03/17 03:47:42;;;;;;;57.30;30.52;;;;;;;1.94;87.61;97780.40;1732644;82;21438;-72
2021/03/17 03:50:09;;;;;;;57.17;32.10;;;;;;;1.93;87.95;97779.30;1732644;81;21030;-72
2021/03/17 03:53:24;;;;;;;62.58;31.75;;;;;;;1.89;88.21;97778.96;1732698;82;21632;-72
2021/03/17 03:56:07;;;;;;;58.38;29.10;;;;;;;1.87;88.40;97777.02;1727353;83;21264;-71
2021/03/17 03:59:04;;;;;;;69.35;30.92;;;;;;;1.91;88.16;97778.72;1733145;82;21104;-72
2021/03/17 04:01:47;;;;;;;60.00;30.17;;;;;;;1.91;88.23;97780.88;1727259;83;21116;-72
2021/03/17 04:04:17;;;;;;;58.28;28.52;;;;;;;1.89;88.35;97776.81;1733219;81;21218;-71
2021/03/17 04:06:55;;;;;;;58.08;31.62;;;;;;;1.90;88.18;97777.09;1727345;83;21108;-72
2021/03/17 04:09:25;;;;;;;64.90;32.00;;;;;;;1.86;88.34;97778.06;1733163;81;21272;-73
2021/03/17 04:11:56;;;;;;;60.48;29.63;;;;;;;1.88;88.18;97777.83;1727201;83;21556;-72
2021/03/17 04:14:22;;;;;;;58.10;27.67;;;;;;;1.86;88.37;97777.25;1707843;82;21084;-72
2021/03/17 04:16:48;;;;;;;62.50;28.38;;;;;;;1.90;87.72;97777.91;1727283;83;21155;-72
2021/03/17 04:19:14;;;;;;;66.57;31.20;;;;;;;1.88;88.31;97781.34;1733212;81;21199;-72
2021/03/17 04:21:41;;;;;;;52.78;29.25;;;;;;;1.91;88.15;97774.19;1727367;83;22316;-72
2021/03/17 04:24:07;;;;;;;60.38;28.87;;;;;;;1.89;88.34;97778.96;1733112;81;21070;-72
2021/03/17 04:26:34;;;;;;;60.43;31.62;;;;;;;1.94;88.03;97775.58;1702498;83;21136;-72
2021/03/17 04:29:00;;;;;;;61.42;29.05;;;;;;;1.98;87.93;97784.26;1733149;81;21129;-72
2021/03/17 04:31:26;;;;;;;53.15;28.73;;;;;;;1.97;87.99;97776.48;1727295;83;21144;-72
2021/03/17 04:33:54;;;;;;;60.92;29.55;;;;;;;1.92;88.16;97777.16;1733167;81;21138;-72
2021/03/17 04:36:20;;;;;;;62.35;30.40;;;;;;;1.93;88.41;97777.44;1702409;83;21084;-72
2021/03/17 04:38:46;;;;;;;60.83;31.60;;;;;;;1.96;88.08;97779.64;1733168;82;21050;-72
2021/03/17 04:41:12;;;;;;;63.28;29.20;;;;;;;1.96;88.23;97783.65;1727299;83;21135;-72
2021/03/17 04:43:40;;;;;;;63.02;32.17;;;;;;;1.95;88.19;97778.55;1733190;82;21038;-72
2021/03/17 04:46:07;;;;;;;60.05;30.70;;;;;;;1.88;88.61;97781.34;1727208;83;21201;-72
2021/03/17 04:48:34;;;;;;;69.42;32.83;;;;;;;1.87;88.41;97783.70;1758924;81;21132;-72
2021/03/17 04:51:00;;;;;;;74.25;33.98;;;;;;;1.81;88.93;97784.63;1708019;82;21144;-72
2021/03/17 04:53:26;;;;;;;62.53;31.17;;;;;;;1.83;89.13;97783.06;1731411;82;21454;-72
2021/03/17 04:55:53;;;;;;;68.70;33.23;;;;;;;1.86;89.00;97783.41;1767329;81;21100;-72
2021/03/17 04:58:23;;;;;;;66.12;31.80;;;;;;;1.84;89.13;97782.02;1788794;80;22040;-72
2021/03/17 05:00:50;;;;;;;68.35;35.60;;;;;;;1.89;88.77;97786.16;1788768;78;21408;-72
2021/03/17 05:03:22;;;;;;;58.40;31.27;;;;;;;1.90;88.92;97778.44;1788696;80;21042;-72
2021/03/17 05:05:52;;;;;;;65.95;31.95;;;;;;;1.96;88.44;97782.31;1788432;78;21431;-73
2021/03/17 05:08:19;;;;;;;64.60;31.48;;;;;;;1.99;88.55;97787.74;1788850;80;21023;-74
2021/03/17 05:10:46;;;;;;;68.70;31.70;;;;;;;1.89;88.54;97783.49;1788695;78;21194;-71
2021/03/17 05:13:14;;;;;;;66.57;32.65;;;;;;;1.91;88.53;97782.20;1764358;80;21099;-71
2021/03/17 05:15:40;;;;;;;58.95;29.87;;;;;;;1.91;88.28;97792.08;1788801;78;21121;-71
2021/03/17 05:18:07;;;;;;;71.20;35.08;;;;;;;1.91;88.41;97798.24;1788732;80;21082;-71
2021/03/17 05:20:33;;;;;;;71.37;34.85;;;;;;;1.85;88.53;97787.65;1788772;78;21090;-71
2021/03/17 05:22:59;;;;;;;68.80;33.00;;;;;;;1.83;88.51;97793.75;1788823;80;21405;-71
2021/03/17 05:25:26;;;;;;;69.62;33.33;;;;;;;1.83;88.59;97789.74;1788756;78;21032;-71
2021/03/17 05:28:03;;;;;;;62.90;33.45;;;;;;;1.79;88.77;97797.39;1788726;80;21082;-71
2021/03/17 05:30:25;;;;;;;67.95;34.88;;;;;;;1.79;88.73;97796.05;1788025;78;21399;-72
2021/03/17 05:32:52;;;;;;;66.35;33.18;;;;;;;1.82;88.57;97798.80;1788830;80;21482;-72
2021/03/17 05:35:18;;;;;;;63.05;29.95;;;;;;;1.83;88.37;97801.24;1788744;78;21139;-72
2021/03/17 05:37:48;;;;;;;61.80;29.57;;;;;;;1.76;88.46;97792.51;1788670;80;21558;-72
2021/03/17 05:40:16;;;;;;;64.45;33.08;;;;;;;1.78;88.42;97798.43;1788728;78;21111;-72
2021/03/17 05:42:42;;;;;;;66.65;33.85;;;;;;;1.77;88.59;97800.81;1788778;80;21513;-72
2021/03/17 05:45:17;;;;;;;60.65;32.73;;;;;;;1.73;88.59;97799.66;1788751;78;21011;-72
2021/03/17 05:47:47;;;;;;;59.50;29.87;;;;;;;1.68;88.57;97804.33;1788821;80;21194;-72
2021/03/17 05:50:15;;;;;;;;;;;;;;;1.68;88.66;97802.19;1790638;78;21094;-72
2021/03/17 05:52:41;;;;;;;56.90;27.30;;;;;;;1.69;88.52;97807.29;1787690;80;20253;-72
2021/03/17 05:55:09;;;;;;;72.92;32.85;;;;;;;1.62;88.82;97805.27;1780828;79;21424;-72
2021/03/17 05:57:37;;;;;;;68.28;31.60;;;;;;;1.68;88.58;97809.67;1780885;80;21482;-72
2021/03/17 06:00:07;;;;;;;60.67;30.75;;;;;;;1.69;89.04;97811.83;1780718;79;21985;-72
2021/03/17 06:02:33;;;;;;;66.28;31.17;;;;;;;1.74;88.85;97811.16;1780659;80;21503;-72
2021/03/17 06:05:01;;;;;;;65.90;31.85;;;;;;;1.72;88.67;97811.91;1780872;79;21040;-72
2021/03/17 06:07:27;;;;;;;57.10;31.23;;;;;;;1.76;88.35;97817.08;1780495;80;21111;-72
2021/03/17 06:09:54;;;;;;;70.95;31.15;;;;;;;1.73;88.40;97822.89;1780933;79;21114;-72
2021/03/17 06:12:23;;;;;;;66.85;33.53;;;;;;;1.75;88.54;97820.27;1780850;80;21504;-72
2021/03/17 06:14:51;;;;;;;;;;;;;;;1.78;88.39;97818.99;1764762;80;21061;-72
2021/03/17 06:17:20;;;;;;;70.73;30.87;;;;;;;1.85;88.18;97829.06;1762557;81;20290;-72
2021/03/17 06:19:47;;;;;;;;;;;;;;;1.85;88.15;97827.20;1783532;79;21043;-72
2021/03/17 06:22:14;;;;;;;58.55;29.20;;;;;;;1.79;87.68;97836.13;1780932;80;20246;-72
2021/03/17 06:24:40;;;;;;;64.35;31.65;;;;;;;1.87;87.72;97841.14;1780788;79;22352;-73
2021/03/17 06:27:07;;;;;;;59.25;29.87;;;;;;;1.88;87.36;97841.95;1780889;80;21154;-72
2021/03/17 06:29:33;;;;;;;54.13;28.83;;;;;;;1.92;86.98;97839.95;1762227;80;21112;-72
2021/03/17 06:31:59;;;;;;;54.65;28.32;;;;;;;1.98;86.53;97846.25;1780814;80;21122;-72
2021/03/17 06:34:25;;;;;;;53.48;29.42;;;;;;;2.02;86.41;97844.73;1762240;80;21014;-72
2021/03/17 06:36:55;;;;;;;46.15;23.35;;;;;;;2.05;86.48;97848.80;1780942;80;22110;-72
2021/03/17 06:39:22;;;;;;;60.67;28.90;;;;;;;2.05;86.55;97850.14;1762186;80;21085;-72
2021/03/17 06:41:54;;;;;;;56.70;32.25;;;;;;;2.12;86.45;97852.19;1780898;80;21535;-72
2021/03/17 06:44:27;;;;;;;62.25;28.32;;;;;;;2.08;86.76;97853.70;1762292;80;21049;-71
2021/03/17 06:47:20;;;;;;;57.05;30.52;;;;;;;2.13;86.59;97850.62;1780993;80;21102;-72
2021/03/17 06:49:49;;;;;;;54.38;29.07;;;;;;;2.12;86.51;97856.20;1762334;81;21968;-71
2021/03/17 06:52:35;;;;;;;59.70;30.15;;;;;;;2.17;86.66;97856.34;1780354;80;21098;-72
2021/03/17 06:55:15;;;;;;;59.63;30.72;;;;;;;2.26;86.25;97858.97;1767167;81;21100;-72
2021/03/17 06:57:47;;;;;;;68.02;36.68;;;;;;;2.27;86.05;97865.94;1788849;80;21086;-71
2021/03/17 07:00:33;;;;;;;82.80;44.83;;;;;;;2.26;85.95;97861.64;1788374;78;21098;-72
2021/03/17 07:03:09;;;;;;;67.85;40.20;;;;;;;2.35;85.97;97862.94;1788854;80;21256;-71
2021/03/17 07:05:46;;;;;;;64.75;38.88;;;;;;;2.32;85.64;97863.93;1787352;78;21643;-72
2021/03/17 07:08:17;;;;;;;62.15;30.60;;;;;;;2.35;85.43;97868.80;1788850;80;21070;-71
2021/03/17 07:10:44;;;;;;;57.45;30.32;;;;;;;2.22;85.66;97872.00;1785001;78;21096;-72
2021/03/17 07:13:13;;;;;;;52.95;25.35;;;;;;;2.30;85.72;97872.68;1788952;80;21534;-72
2021/03/17 07:15:40;;;;;;;49.27;27.07;;;;;;;2.46;85.39;97870.67;1789028;78;22100;-72
2021/03/17 07:18:27;;;;;;;57.23;32.10;;;;;;;2.48;85.31;97872.09;1788749;80;21103;-72
2021/03/17 07:21:03;;;;;;;52.58;27.02;;;;;;;2.53;85.23;97873.53;1788932;78;21535;-72
2021/03/17 07:23:40;;;;;;;57.15;29.18;;;;;;;2.56;84.97;97869.57;1788926;80;21051;-72
2021/03/17 07:26:23;;;;;;;61.48;33.05;;;;;;;2.55;84.84;97871.95;1788763;78;21062;-72
2021/03/17 07:29:07;;;;;;;64.72;34.65;;;;;;;2.45;84.63;97877.88;1788828;80;21230;-71
2021/03/17 07:31:42;;;;;;;62.75;31.70;;;;;;;2.47;84.80;97877.65;1788611;80;21118;-71
2021/03/17 07:34:13;;;;;;;66.53;36.33;;;;;;;2.43;84.84;97877.31;1788822;78;21032;-72
2021/03/17 07:36:46;;;;;;;55.03;30.23;;;;;;;2.49;84.78;97871.56;1764415;80;21078;-72
2021/03/17 07:39:25;;;;;;;69.20;34.18;;;;;;;2.51;84.53;97872.95;1788807;78;21211;-72
2021/03/17 07:41:53;;;;;;;55.67;29.27;;;;;;;2.58;84.43;97878.73;1783787;80;21475;-71
2021/03/17 07:44:19;;;;;;;53.70;29.15;;;;;;;2.60;84.11;97876.10;1788659;78;21039;-71
2021/03/17 07:46:49;;;;;;;57.55;31.35;;;;;;;2.60;83.95;97878.78;1788888;80;21134;-71
2021/03/17 07:49:15;;;;;;;59.80;32.90;;;;;;;2.71;83.96;97882.50;1788780;78;21099;-72
2021/03/17 07:51:51;;;;;;;58.87;30.10;;;;;;;2.82;83.63;97881.70;1788834;80;21110;-72
2021/03/17 07:54:30;;;;;;;52.67;27.00;;;;;;;2.97;83.61;97883.89;1786872;79;22091;-71
2021/03/17 07:56:58;;;;;;;;;;;;;;;3.02;83.25;97893.38;1787883;80;21102;-71
2021/03/17 07:59:24;;;;;;;52.95;28.15;;;;;;;3.06;82.73;97888.64;1785287;79;20483;-71
2021/03/17 08:01:52;;;;;;;57.23;28.67;;;;;;;3.16;82.79;97880.02;1785207;80;21141;-71
2021/03/17 08:04:18;;;;;;;49.85;26.37;;;;;;;3.26;82.79;97884.80;1785262;79;21023;-71
2021/03/17 08:06:44;;;;;;;53.20;29.02;;;;;;;3.25;82.30;97877.30;1785304;80;21500;-71
2021/03/17 08:09:11;;;;;;;54.27;27.65;;;;;;;3.17;81.96;97884.88;1785101;79;21413;-71
2021/03/17 08:11:37;;;;;;;46.80;26.93;;;;;;;3.13;81.43;97887.72;1785138;80;21126;-71
2021/03/17 08:14:04;;;;;;;48.78;25.90;;;;;;;3.05;80.99;97887.55;1785235;79;21516;-71
2021/03/17 08:16:36;;;;;;;54.50;27.20;;;;;;;3.02;80.80;97880.00;1757056;80;21078;-71
2021/03/17 08:19:24;;;;;;;43.98;24.02;;;;;;;3.00;81.14;97880.23;1785254;79;21364;-72
2021/03/17 08:22:01;;;;;;;50.23;28.00;;;;;;;3.04;80.74;97884.06;1784846;80;21534;-71
2021/03/17 08:24:38;;;;;;;40.25;21.87;;;;;;;3.00;80.59;97892.81;1785181;79;21051;-72
2021/03/17 08:27:17;;;;;;;49.73;29.42;;;;;;;3.03;80.48;97894.48;1785167;80;21103;-71
2021/03/17 08:29:52;;;;;;;52.55;31.00;;;;;;;2.96;79.60;97891.63;1785263;79;21098;-71
2021/03/17 08:32:19;;;;;;;46.02;25.90;;;;;;;2.91;80.43;97894.21;1785177;80;22072;-72
2021/03/17 08:34:56;;;;;;;47.13;26.55;;;;;;;2.78;79.48;97892.56;1785067;79;21408;-72
2021/03/17 08:37:48;;;;;;;44.85;25.12;;;;;;;2.72;79.96;97892.15;1785196;80;21087;-71
2021/03/17 08:40:35;;;;;;;42.45;22.90;;;;;;;2.79;80.25;97900.88;1785141;79;21095;-71
2021/03/17 08:43:31;;;;;;;51.55;27.32;;;;;;;2.92;80.47;97899.33;1785315;80;21070;-73
2021/03/17 08:46:09;;;;;;;41.40;22.45;;;;;;;2.85;79.32;97903.16;1783486;79;21196;-72
2021/03/17 08:49:02;;;;;;;48.13;25.82;;;;;;;2.96;79.61;97903.67;1780656;80;21026;-72
2021/03/17 08:51:52;;;;;;;42.50;24.15;;;;;;;3.01;79.65;97905.14;1785130;80;21527;-71
2021/03/17 08:54:46;;;;;;;44.23;24.27;;;;;;;3.05;79.51;97900.41;1783280;79;21035;-71
2021/03/17 08:57:14;;;;;;;39.45;22.60;;;;;;;3.08;79.30;97905.31;1780871;80;21083;-71
2021/03/17 08:59:55;;;;;;;43.50;25.75;;;;;;;3.15;79.45;97909.71;1780767;79;21198;-71
2021/03/17 09:02:33;;;;;;;44.05;25.10;;;;;;;3.14;78.96;97907.56;1780682;80;21082;-71
2021/03/17 09:05:02;;;;;;;44.67;25.08;;;;;;;3.20;79.08;97905.29;1780837;79;21023;-72
2021/03/17 09:07:33;;;;;;;42.98;21.50;;;;;;;3.03;77.78;97903.84;1780940;80;21094;-70
2021/03/17 09:10:10;;;;;;;44.40;23.98;;;;;;;3.13;78.53;97905.94;1780702;79;21031;-71
2021/03/17 09:12:45;;;;;;;41.15;22.32;;;;;;;2.98;78.32;97913.09;1780754;80;21236;-71
2021/03/17 09:15:17;;;;;;;44.40;24.15;;;;;;;3.18;78.71;97907.39;1780722;79;21548;-71
2021/03/17 09:17:55;;;;;;;48.40;27.13;;;;;;;3.19;78.19;97910.36;1780735;80;21091;-71
2021/03/17 09:20:41;;;;;;;46.97;25.33;;;;;;;3.45;77.49;97898.31;1780273;79;21484;-71
2021/03/17 09:23:19;;;;;;;47.45;25.62;;;;;;;3.45;77.49;97898.31;1780830;80;21968;-71
2021/03/17 09:25:54;;;;;;;43.95;23.90;;;;;;;3.58;78.00;97901.23;1780886;79;21202;-71
2021/03/17 09:28:28;;;;;;;43.23;25.97;;;;;;;3.61;78.05;97903.47;1780682;80;21095;-71
2021/03/17 09:31:11;;;;;;;46.10;25.77;;;;;;;3.46;76.98;97907.17;1780687;79;21122;-71
2021/03/17 09:33:40;;;;;;;43.60;24.45;;;;;;;3.69;76.93;97903.09;1780297;80;21102;-71
2021/03/17 09:36:10;;;;;;;42.55;21.73;;;;;;;4.00;77.23;97904.47;1780143;79;21003;-72
2021/03/17 09:38:40;;;;;;;44.73;22.65;;;;;;;3.85;76.24;97898.84;1762112;81;21200;-72
2021/03/17 09:41:20;;;;;;;41.40;21.00;;;;;;;3.75;76.34;97899.97;1779808;79;21043;-72
2021/03/17 09:43:51;;;;;;;36.05;19.98;;;;;;;3.77;76.85;97902.72;1762165;81;21061;-72
2021/03/17 09:46:41;;;;;;;38.42;21.33;;;;;;;3.58;75.82;97895.36;1780694;80;21099;-71
2021/03/17 09:49:13;;;;;;;35.98;18.55;;;;;;;3.71;76.92;97897.48;1762213;80;21476;-71
2021/03/17 09:51:47;;;;;;;34.75;20.52;;;;;;;3.62;76.32;97901.88;1755607;80;50860;-72
2021/03/17 09:54:16;;;;;;;35.00;18.65;;;;;;;3.70;76.45;97906.06;1759519;80;21338;-70
2021/03/17 09:56:50;;;;;;;35.03;17.40;;;;;;;3.72;75.66;97909.83;1732485;82;21122;-70
2021/03/17 09:59:34;;;;;;;30.88;17.17;;;;;;;3.92;75.97;97904.33;1732367;81;21152;-72
2021/03/17 10:02:10;;;;;;;32.40;17.37;;;;;;;3.93;75.05;97903.80;1732419;82;21133;-71
2021/03/17 10:04:45;;;;;;;36.50;19.45;;;;;;;4.05;75.03;97909.12;1732298;81;21284;-72
2021/03/17 10:07:21;;;;;;;30.52;17.27;;;;;;;4.04;73.57;97904.82;1732292;82;21138;-71
2021/03/17 10:09:47;;;;;;;30.10;14.00;;;;;;;4.02;72.86;97910.43;1731498;81;21435;-70
2021/03/17 10:12:19;;;;;;;22.95;12.85;;;;;;;3.97;72.71;97902.28;1732426;82;21152;-71
2021/03/17 10:14:52;;;;;;;23.10;12.80;;;;;;;3.90;72.64;97904.28;1732414;81;21050;-71
2021/03/17 10:17:20;;;;;;;22.62;12.18;;;;;;;3.89;72.37;97908.02;1732409;82;21196;-71
2021/03/17 10:19:50;;;;;;;24.82;14.53;;;;;;;3.95;71.96;97903.86;1732303;81;21447;-72
2021/03/17 10:22:16;;;;;;;25.50;15.68;;;;;;;3.74;69.13;97904.52;1731810;82;21113;-71
2021/03/17 10:24:45;;;;;;;26.45;13.65;;;;;;;3.85;69.75;97905.55;1732304;81;21105;-71
2021/03/17 10:27:13;;;;;;;23.12;13.75;;;;;;;3.86;70.02;97906.64;1732595;82;21092;-71
2021/03/17 10:29:41;;;;;;;38.43;22.10;;;;;;;3.83;69.61;97912.46;1732540;81;21177;-71
2021/03/17 10:32:08;;;;;;;26.02;15.38;;;;;;;3.91;70.38;97904.04;1732325;82;21602;-71
2021/03/17 10:34:35;;;;;;;35.13;18.35;;;;;;;3.99;71.43;97902.84;1732322;81;21049;-71
2021/03/17 10:37:01;;;;;;;36.38;19.90;;;;;;;4.02;71.38;97902.39;1732472;82;21514;-71
2021/03/17 10:39:33;;;;;;;36.73;20.65;;;;;;;4.25;72.02;97898.22;1732316;81;21204;-71
2021/03/17 10:42:00;;;;;;;21.10;12.98;;;;;;;4.59;71.58;97897.44;1732420;82;21271;-71
2021/03/17 10:44:29;;;;;;;25.23;13.80;;;;;;;4.68;69.63;97900.00;1732225;81;21601;-71
2021/03/17 10:47:08;;;;;;;19.12;12.37;;;;;;;4.62;67.90;97887.58;1732569;82;25396;-71
2021/03/17 10:49:46;;;;;;;23.40;12.98;;;;;;;4.46;67.44;97891.88;1731723;81;21097;-71
2021/03/17 10:52:13;;;;;;;21.87;12.95;;;;;;;4.37;68.41;97896.02;1732594;82;21108;-72
2021/03/17 10:54:42;;;;;;;29.05;15.78;;;;;;;4.29;67.14;97885.69;1732374;81;22094;-72
2021/03/17 10:57:08;;;;;;;23.55;13.62;;;;;;;4.21;67.59;97886.89;1732571;82;21085;-72
2021/03/17 10:59:38;;;;;;;27.58;12.80;;;;;;;4.24;67.99;97883.72;1732457;81;21041;-72
2021/03/17 11:02:25;;;;;;;26.42;15.38;;;;;;;4.08;65.87;97881.29;1732487;82;21113;-71
2021/03/17 11:05:20;;;;;;;24.57;12.68;;;;;;;4.07;66.16;97884.22;1732469;81;21093;-71
2021/03/17 11:08:00;;;;;;;26.40;13.68;;;;;;;3.98;66.16;97878.43;1732484;82;21203;-71
2021/03/17 11:10:42;;;;;;;25.02;12.73;;;;;;;3.96;65.89;97884.03;1756593;80;21036;-71
2021/03/17 11:13:17;;;;;;;23.98;12.45;;;;;;;4.04;66.41;97883.37;1785238;80;21103;-71
2021/03/17 11:16:11;;;;;;;21.02;12.13;;;;;;;4.17;66.14;97877.69;1785303;79;21476;-71
2021/03/17 11:18:50;;;;;;;21.40;11.88;;;;;;;4.26;64.72;97876.23;1785301;80;21462;-71
2021/03/17 11:21:37;;;;;;;24.00;13.32;;;;;;;4.47;65.95;97879.55;1785223;80;21189;-71
2021/03/17 11:24:05;;;;;;;34.98;16.85;;;;;;;4.45;63.82;97874.16;1785192;79;21118;-72
2021/03/17 11:26:37;;;;;;;32.38;19.65;;;;;;;4.59;65.28;97875.44;1785463;80;21523;-72
2021/03/17 11:29:22;;;;;;;24.63;13.13;;;;;;;4.68;65.02;97876.66;1785304;79;21075;-72
2021/03/17 11:31:52;;;;;;;18.92;11.85;;;;;;;4.45;61.66;97880.86;1784683;80;21091;-72
2021/03/17 11:34:19;;;;;;;21.87;12.78;;;;;;;4.49;63.13;97874.75;1784800;79;21208;-71
2021/03/17 11:36:46;;;;;;;20.85;12.37;;;;;;;4.55;65.16;97879.68;1785166;80;21106;-71
2021/03/17 11:39:14;;;;;;;20.97;10.98;;;;;;;4.62;65.68;97876.31;1785223;79;21174;-71
2021/03/17 11:41:42;;;;;;;20.35;12.37;;;;;;;4.70;64.20;97871.88;1785391;80;21554;-71
2021/03/17 11:44:08;;;;;;;18.37;10.65;;;;;;;4.93;65.07;97870.04;1785216;79;21059;-71
2021/03/17 11:46:34;;;;;;;24.37;13.35;;;;;;;5.13;62.41;97871.69;1756430;80;21264;-71